Weather observations for the past three days for
El Monte
Metric (Imperial)
Date Time (pdt) Wind (kph) Vis. (km) Weather Sky Cond. Temperature (ºC) Relative Humidity Wind Chill (°C) Heat Index (°C) Pressure Precipitation (cm)
Air Dwpt 6 hour altimeter (cm) sea level (mb) 1 hr 3 hr 6 hr
Max. Min.
09 16:45 SW 19 12.87 Fair CLR 27 13 42% 27 75.82 0.0
09 15:45 S 20 12.87 Fair CLR 27 14 45% 27 75.84 0.0
09 14:45 SW 15 G 28 12.87 Fair CLR 28 14 42% 28 75.9 0.0
09 13:45 S 17 12.87 Fair CLR 26 14 48% 26 75.92 0.0
09 12:45 Calm 12.87 Fair CLR 24 14 54% 25 75.97 0.0
09 11:45 S 13 12.87 Fair CLR 24 15 57% 25 76.02 0.0
09 10:45 S 7 8.05 Fair with Haze CLR 21 14 64% 76.05 0.0
09 08:45 Calm 6.44 Mostly Cloudy with Haze BKN015 18 14 78% 76.07 0.0
09 07:45 Calm 4.83 Fog/Mist OVC013 17 14 83% 76.07 0.0
08 19:45 SW 9 16.09 Fair CLR 20 14 69% 76.02 0.0
08 18:45 SW 11 16.09 Fair CLR 22 14 61% 75.97 0.0
08 17:45 SW 15 16.09 Fair CLR 24 14 54% 25 75.97 0.0
08 16:45 SW 19 16.09 Fair CLR 26 14 48% 26 75.95 0.0
08 15:45 S 15 16.09 Fair CLR 26 14 48% 26 76.05 0.0
08 14:45 S 9 G 20 16.09 Fair CLR 26 14 48% 26 76.05 0.0
08 12:45 SW 7 G 19 16.09 Fair CLR 22 14 61% 76.15 0.0
08 11:45 Calm 12.87 A Few Clouds FEW030 21 14 64% 76.2 0.0
08 10:45 Calm 12.87 Overcast OVC012 19 13 68% 76.25 0.0
08 08:45 Calm 9.66 Overcast with Haze OVC012 17 13 77% 76.25 0.0
07 18:45 SW 15 16.09 Fair CLR 23 12 50% 76.02 0.0
07 17:45 SW 15 G 24 16.09 Fair CLR 24 13 50% 25 76.02 0.0
07 16:45 SW 13 16.09 Fair CLR 25 13 47% 26 76 0.0
07 15:45 SW 19 G 30 16.09 Fair CLR 26 14 48% 26 76.02 0.0
07 10:45 Calm 16.09 Fair CLR 22 12 53% 76.23 0.0
07 09:45 S 6 16.09 Fair CLR 21 12 57% 76.25 0.0
07 08:45 Calm 16.09 Fair CLR 18 12 68% 76.28 0.0
07 07:45 Calm 16.09 Fair CLR 16 12 77% 76.28 0.0
Date Time (pdt) Wind (kph) Vis. (km) Weather Sky Cond. Air Dwpt Max. Min. Relative Humidity Wind Chill (°C) Heat Index (°C) altimeter (cm) sea level (mb) 1 hr 3 hr 6 hr
6 hour
Temperature (ºC) Pressure Precipitation (cm)